sensor_id;sensor_type;location;lat;lon;timestamp;P1;durP1;ratioP1;P2;durP2;ratioP2
3278;SDS011;1651;50.940;6.888;2022-09-20T00:00:10;5.47;;;2.57;;
3278;SDS011;1651;50.940;6.888;2022-09-20T00:02:39;4.20;;;2.07;;
3278;SDS011;1651;50.940;6.888;2022-09-20T00:05:05;6.60;;;1.70;;
3278;SDS011;1651;50.940;6.888;2022-09-20T00:07:32;6.83;;;2.60;;
3278;SDS011;1651;50.940;6.888;2022-09-20T00:09:58;5.80;;;2.13;;
3278;SDS011;1651;50.940;6.888;2022-09-20T00:12:24;4.70;;;1.93;;
3278;SDS011;1651;50.940;6.888;2022-09-20T00:14:50;2.60;;;2.13;;
3278;SDS011;1651;50.940;6.888;2022-09-20T00:17:17;6.10;;;1.63;;
3278;SDS011;1651;50.940;6.888;2022-09-20T00:19:43;3.13;;;1.90;;
3278;SDS011;1651;50.940;6.888;2022-09-20T00:22:11;4.20;;;2.10;;
3278;SDS011;1651;50.940;6.888;2022-09-20T00:24:37;5.87;;;2.13;;
3278;SDS011;1651;50.940;6.888;2022-09-20T00:27:03;3.57;;;2.50;;
3278;SDS011;1651;50.940;6.888;2022-09-20T00:29:31;5.73;;;1.93;;
3278;SDS011;1651;50.940;6.888;2022-09-20T00:31:57;2.83;;;2.00;;
3278;SDS011;1651;50.940;6.888;2022-09-20T00:34:24;5.03;;;2.30;;
3278;SDS011;1651;50.940;6.888;2022-09-20T00:37:09;4.50;;;1.97;;
3278;SDS011;1651;50.940;6.888;2022-09-20T00:39:35;6.37;;;3.13;;
3278;SDS011;1651;50.940;6.888;2022-09-20T00:42:01;6.20;;;2.27;;
3278;SDS011;1651;50.940;6.888;2022-09-20T00:47:04;3.13;;;1.70;;
3278;SDS011;1651;50.940;6.888;2022-09-20T00:49:31;5.27;;;2.03;;
3278;SDS011;1651;50.940;6.888;2022-09-20T00:51:59;3.30;;;2.50;;
3278;SDS011;1651;50.940;6.888;2022-09-20T00:54:27;4.47;;;2.30;;
3278;SDS011;1651;50.940;6.888;2022-09-20T00:56:55;5.07;;;2.47;;
3278;SDS011;1651;50.940;6.888;2022-09-20T00:59:26;7.00;;;2.97;;
3278;SDS011;1651;50.940;6.888;2022-09-20T01:01:55;5.03;;;2.40;;
3278;SDS011;1651;50.940;6.888;2022-09-20T01:04:24;4.40;;;2.10;;
3278;SDS011;1651;50.940;6.888;2022-09-20T01:06:55;3.73;;;2.23;;
3278;SDS011;1651;50.940;6.888;2022-09-20T01:09:22;5.73;;;2.57;;
3278;SDS011;1651;50.940;6.888;2022-09-20T01:11:48;4.60;;;2.57;;
3278;SDS011;1651;50.940;6.888;2022-09-20T01:14:15;4.30;;;2.40;;
3278;SDS011;1651;50.940;6.888;2022-09-20T01:16:44;3.50;;;2.30;;
3278;SDS011;1651;50.940;6.888;2022-09-20T01:19:14;5.77;;;2.60;;
3278;SDS011;1651;50.940;6.888;2022-09-20T01:21:42;7.30;;;3.00;;
3278;SDS011;1651;50.940;6.888;2022-09-20T01:24:17;6.83;;;2.87;;
3278;SDS011;1651;50.940;6.888;2022-09-20T01:27:08;12.20;;;2.90;;
3278;SDS011;1651;50.940;6.888;2022-09-20T01:32:07;6.87;;;3.13;;
3278;SDS011;1651;50.940;6.888;2022-09-20T01:34:36;14.40;;;3.63;;
3278;SDS011;1651;50.940;6.888;2022-09-20T01:37:13;5.33;;;2.03;;
3278;SDS011;1651;50.940;6.888;2022-09-20T01:42:50;8.43;;;3.23;;
3278;SDS011;1651;50.940;6.888;2022-09-20T01:45:27;6.83;;;2.97;;
3278;SDS011;1651;50.940;6.888;2022-09-20T01:53:16;7.57;;;3.33;;
3278;SDS011;1651;50.940;6.888;2022-09-20T02:11:45;4.20;;;2.97;;
3278;SDS011;1651;50.940;6.888;2022-09-20T02:17:13;3.80;;;2.77;;
3278;SDS011;1651;50.940;6.888;2022-09-20T02:27:56;6.20;;;2.70;;
3278;SDS011;1651;50.940;6.888;2022-09-20T02:38:21;7.73;;;2.90;;
3278;SDS011;1651;50.940;6.888;2022-09-20T02:46:27;9.47;;;3.10;;
3278;SDS011;1651;50.940;6.888;2022-09-20T02:49:16;4.40;;;2.50;;
3278;SDS011;1651;50.940;6.888;2022-09-20T03:07:09;8.63;;;3.27;;
3278;SDS011;1651;50.940;6.888;2022-09-20T03:09:39;5.67;;;2.50;;
3278;SDS011;1651;50.940;6.888;2022-09-20T03:17:55;6.80;;;3.13;;
3278;SDS011;1651;50.940;6.888;2022-09-20T03:20:28;4.80;;;2.50;;
3278;SDS011;1651;50.940;6.888;2022-09-20T03:25:40;7.03;;;3.23;;
3278;SDS011;1651;50.940;6.888;2022-09-20T03:30:43;4.43;;;2.47;;
3278;SDS011;1651;50.940;6.888;2022-09-20T03:33:23;6.47;;;2.40;;
3278;SDS011;1651;50.940;6.888;2022-09-20T03:41:20;3.83;;;2.17;;
3278;SDS011;1651;50.940;6.888;2022-09-20T03:51:29;4.87;;;2.80;;
3278;SDS011;1651;50.940;6.888;2022-09-20T04:09:49;7.13;;;2.70;;
3278;SDS011;1651;50.940;6.888;2022-09-20T04:17:38;4.93;;;3.10;;
3278;SDS011;1651;50.940;6.888;2022-09-20T04:22:46;7.23;;;2.87;;
3278;SDS011;1651;50.940;6.888;2022-09-20T04:25:19;5.23;;;2.50;;
3278;SDS011;1651;50.940;6.888;2022-09-20T04:30:17;9.60;;;2.83;;
3278;SDS011;1651;50.940;6.888;2022-09-20T04:38:17;3.43;;;2.20;;
3278;SDS011;1651;50.940;6.888;2022-09-20T04:40:50;4.93;;;2.17;;
3278;SDS011;1651;50.940;6.888;2022-09-20T04:59:23;8.37;;;3.33;;
3278;SDS011;1651;50.940;6.888;2022-09-20T05:02:10;4.73;;;2.23;;
3278;SDS011;1651;50.940;6.888;2022-09-20T05:25:41;6.70;;;2.87;;
3278;SDS011;1651;50.940;6.888;2022-09-20T05:31:05;9.63;;;2.83;;
3278;SDS011;1651;50.940;6.888;2022-09-20T05:38:38;11.10;;;3.53;;
3278;SDS011;1651;50.940;6.888;2022-09-20T05:41:14;8.17;;;3.10;;
3278;SDS011;1651;50.940;6.888;2022-09-20T05:46:32;7.20;;;3.40;;
3278;SDS011;1651;50.940;6.888;2022-09-20T05:49:09;7.70;;;3.73;;
3278;SDS011;1651;50.940;6.888;2022-09-20T05:51:41;5.40;;;3.50;;
3278;SDS011;1651;50.940;6.888;2022-09-20T05:56:46;8.83;;;3.77;;
3278;SDS011;1651;50.940;6.888;2022-09-20T06:02:02;8.23;;;3.67;;
3278;SDS011;1651;50.940;6.888;2022-09-20T06:04:36;9.10;;;3.93;;
3278;SDS011;1651;50.940;6.888;2022-09-20T06:07:06;7.07;;;4.10;;
3278;SDS011;1651;50.940;6.888;2022-09-20T06:17:56;9.10;;;4.20;;
3278;SDS011;1651;50.940;6.888;2022-09-20T06:20:30;9.20;;;4.10;;
3278;SDS011;1651;50.940;6.888;2022-09-20T06:22:59;11.10;;;4.50;;
3278;SDS011;1651;50.940;6.888;2022-09-20T06:25:39;5.97;;;3.60;;
3278;SDS011;1651;50.940;6.888;2022-09-20T06:28:12;10.70;;;4.53;;
3278;SDS011;1651;50.940;6.888;2022-09-20T06:30:39;8.10;;;3.30;;
3278;SDS011;1651;50.940;6.888;2022-09-20T06:35:50;5.17;;;3.70;;
3278;SDS011;1651;50.940;6.888;2022-09-20T06:41:15;8.13;;;3.93;;
3278;SDS011;1651;50.940;6.888;2022-09-20T06:43:52;5.73;;;3.37;;
3278;SDS011;1651;50.940;6.888;2022-09-20T06:46:20;7.63;;;3.90;;
3278;SDS011;1651;50.940;6.888;2022-09-20T06:48:46;9.37;;;3.43;;
3278;SDS011;1651;50.940;6.888;2022-09-20T06:51:14;8.13;;;4.40;;
3278;SDS011;1651;50.940;6.888;2022-09-20T06:53:40;6.63;;;4.70;;
3278;SDS011;1651;50.940;6.888;2022-09-20T06:56:07;6.00;;;4.70;;
3278;SDS011;1651;50.940;6.888;2022-09-20T06:58:34;6.70;;;4.70;;
3278;SDS011;1651;50.940;6.888;2022-09-20T07:01:00;6.50;;;4.50;;
3278;SDS011;1651;50.940;6.888;2022-09-20T07:03:26;8.73;;;3.17;;
3278;SDS011;1651;50.940;6.888;2022-09-20T07:05:54;7.60;;;3.60;;
3278;SDS011;1651;50.940;6.888;2022-09-20T07:08:21;10.60;;;4.53;;
3278;SDS011;1651;50.940;6.888;2022-09-20T07:10:48;8.43;;;3.97;;
3278;SDS011;1651;50.940;6.888;2022-09-20T07:13:14;9.30;;;3.50;;
3278;SDS011;1651;50.940;6.888;2022-09-20T07:15:58;12.17;;;3.90;;
3278;SDS011;1651;50.940;6.888;2022-09-20T07:18:26;5.73;;;3.23;;
3278;SDS011;1651;50.940;6.888;2022-09-20T07:20:52;6.00;;;3.57;;
3278;SDS011;1651;50.940;6.888;2022-09-20T07:26:15;10.60;;;4.20;;
3278;SDS011;1651;50.940;6.888;2022-09-20T07:28:43;7.93;;;3.40;;
3278;SDS011;1651;50.940;6.888;2022-09-20T07:31:10;5.67;;;3.30;;
3278;SDS011;1651;50.940;6.888;2022-09-20T07:33:36;5.27;;;3.00;;
3278;SDS011;1651;50.940;6.888;2022-09-20T07:36:02;3.60;;;2.90;;
3278;SDS011;1651;50.940;6.888;2022-09-20T07:38:28;7.00;;;3.70;;
3278;SDS011;1651;50.940;6.888;2022-09-20T07:40:55;5.23;;;3.40;;
3278;SDS011;1651;50.940;6.888;2022-09-20T07:43:21;6.37;;;3.27;;
3278;SDS011;1651;50.940;6.888;2022-09-20T07:45:51;3.83;;;3.17;;
3278;SDS011;1651;50.940;6.888;2022-09-20T07:48:32;6.27;;;3.17;;
3278;SDS011;1651;50.940;6.888;2022-09-20T07:51:00;5.40;;;2.67;;
3278;SDS011;1651;50.940;6.888;2022-09-20T07:53:29;4.20;;;2.50;;
3278;SDS011;1651;50.940;6.888;2022-09-20T07:56:05;4.97;;;3.03;;
3278;SDS011;1651;50.940;6.888;2022-09-20T07:58:33;4.00;;;2.57;;
3278;SDS011;1651;50.940;6.888;2022-09-20T08:01:00;5.43;;;2.43;;
3278;SDS011;1651;50.940;6.888;2022-09-20T08:03:31;3.57;;;2.20;;
3278;SDS011;1651;50.940;6.888;2022-09-20T08:06:04;4.23;;;2.57;;
3278;SDS011;1651;50.940;6.888;2022-09-20T08:08:31;7.53;;;2.73;;
3278;SDS011;1651;50.940;6.888;2022-09-20T08:11:01;3.70;;;2.20;;
3278;SDS011;1651;50.940;6.888;2022-09-20T08:13:35;4.70;;;2.50;;
3278;SDS011;1651;50.940;6.888;2022-09-20T08:16:05;3.13;;;2.03;;
3278;SDS011;1651;50.940;6.888;2022-09-20T08:18:32;10.10;;;2.27;;
3278;SDS011;1651;50.940;6.888;2022-09-20T08:21:06;5.40;;;3.10;;
3278;SDS011;1651;50.940;6.888;2022-09-20T08:23:37;4.10;;;2.33;;
3278;SDS011;1651;50.940;6.888;2022-09-20T08:26:09;4.87;;;2.00;;
3278;SDS011;1651;50.940;6.888;2022-09-20T08:28:36;7.50;;;2.73;;
3278;SDS011;1651;50.940;6.888;2022-09-20T08:31:03;3.80;;;1.90;;
3278;SDS011;1651;50.940;6.888;2022-09-20T08:33:31;4.00;;;2.60;;
3278;SDS011;1651;50.940;6.888;2022-09-20T08:35:57;4.10;;;2.43;;
3278;SDS011;1651;50.940;6.888;2022-09-20T08:38:24;5.40;;;2.20;;
3278;SDS011;1651;50.940;6.888;2022-09-20T08:43:54;8.67;;;1.73;;
3278;SDS011;1651;50.940;6.888;2022-09-20T08:46:22;5.70;;;1.77;;
3278;SDS011;1651;50.940;6.888;2022-09-20T08:48:51;3.93;;;2.13;;
3278;SDS011;1651;50.940;6.888;2022-09-20T08:51:17;2.97;;;1.80;;
3278;SDS011;1651;50.940;6.888;2022-09-20T08:53:51;7.20;;;2.00;;
3278;SDS011;1651;50.940;6.888;2022-09-20T08:56:18;4.97;;;2.13;;
3278;SDS011;1651;50.940;6.888;2022-09-20T08:58:46;2.93;;;1.80;;
3278;SDS011;1651;50.940;6.888;2022-09-20T09:01:17;4.00;;;1.90;;
3278;SDS011;1651;50.940;6.888;2022-09-20T09:03:45;6.43;;;1.70;;
3278;SDS011;1651;50.940;6.888;2022-09-20T09:06:12;4.43;;;1.67;;
3278;SDS011;1651;50.940;6.888;2022-09-20T09:11:14;3.10;;;1.63;;
3278;SDS011;1651;50.940;6.888;2022-09-20T09:16:23;7.17;;;1.90;;
3278;SDS011;1651;50.940;6.888;2022-09-20T09:18:51;4.17;;;1.57;;
3278;SDS011;1651;50.940;6.888;2022-09-20T09:21:22;3.33;;;1.37;;
3278;SDS011;1651;50.940;6.888;2022-09-20T09:24:23;4.50;;;1.63;;
3278;SDS011;1651;50.940;6.888;2022-09-20T09:26:42;5.77;;;2.20;;
3278;SDS011;1651;50.940;6.888;2022-09-20T09:31:34;6.40;;;1.60;;
3278;SDS011;1651;50.940;6.888;2022-09-20T09:37:24;5.90;;;1.70;;
3278;SDS011;1651;50.940;6.888;2022-09-20T09:45:37;6.57;;;2.33;;
3278;SDS011;1651;50.940;6.888;2022-09-20T09:53:36;5.17;;;1.43;;
3278;SDS011;1651;50.940;6.888;2022-09-20T09:58:39;2.50;;;1.70;;
3278;SDS011;1651;50.940;6.888;2022-09-20T10:01:10;4.10;;;1.30;;
3278;SDS011;1651;50.940;6.888;2022-09-20T10:04:42;4.33;;;1.37;;
3278;SDS011;1651;50.940;6.888;2022-09-20T10:06:57;5.27;;;2.23;;
3278;SDS011;1651;50.940;6.888;2022-09-20T10:12:13;2.10;;;1.50;;
3278;SDS011;1651;50.940;6.888;2022-09-20T10:14:56;4.50;;;1.30;;
3278;SDS011;1651;50.940;6.888;2022-09-20T10:20:06;4.33;;;1.60;;
3278;SDS011;1651;50.940;6.888;2022-09-20T10:26:10;5.73;;;1.43;;
3278;SDS011;1651;50.940;6.888;2022-09-20T10:30:58;2.63;;;1.13;;
3278;SDS011;1651;50.940;6.888;2022-09-20T10:38:32;3.07;;;1.33;;
3278;SDS011;1651;50.940;6.888;2022-09-20T10:41:24;4.00;;;1.10;;
3278;SDS011;1651;50.940;6.888;2022-09-20T10:57:03;4.13;;;1.17;;
3278;SDS011;1651;50.940;6.888;2022-09-20T10:59:36;4.93;;;1.93;;
3278;SDS011;1651;50.940;6.888;2022-09-20T11:02:12;1.77;;;1.03;;
3278;SDS011;1651;50.940;6.888;2022-09-20T11:04:48;9.53;;;2.10;;
3278;SDS011;1651;50.940;6.888;2022-09-20T11:07:16;3.30;;;1.40;;
3278;SDS011;1651;50.940;6.888;2022-09-20T11:09:52;3.33;;;1.30;;
3278;SDS011;1651;50.940;6.888;2022-09-20T11:14:54;8.80;;;2.77;;
3278;SDS011;1651;50.940;6.888;2022-09-20T11:19:55;7.30;;;1.53;;
3278;SDS011;1651;50.940;6.888;2022-09-20T11:24:56;3.43;;;1.30;;
3278;SDS011;1651;50.940;6.888;2022-09-20T11:27:36;4.00;;;1.40;;
3278;SDS011;1651;50.940;6.888;2022-09-20T11:38:44;6.03;;;1.60;;
3278;SDS011;1651;50.940;6.888;2022-09-20T11:44:04;4.20;;;1.60;;
3278;SDS011;1651;50.940;6.888;2022-09-20T11:46:37;2.73;;;1.90;;
3278;SDS011;1651;50.940;6.888;2022-09-20T11:49:09;3.33;;;1.50;;
3278;SDS011;1651;50.940;6.888;2022-09-20T11:57:11;1.67;;;1.57;;
3278;SDS011;1651;50.940;6.888;2022-09-20T11:59:38;2.50;;;1.17;;
3278;SDS011;1651;50.940;6.888;2022-09-20T12:02:15;2.57;;;1.77;;
3278;SDS011;1651;50.940;6.888;2022-09-20T12:04:43;3.23;;;1.30;;
3278;SDS011;1651;50.940;6.888;2022-09-20T12:09:42;3.93;;;1.47;;
3278;SDS011;1651;50.940;6.888;2022-09-20T12:12:15;2.50;;;1.40;;
3278;SDS011;1651;50.940;6.888;2022-09-20T12:14:51;2.73;;;0.90;;
3278;SDS011;1651;50.940;6.888;2022-09-20T12:22:50;1.80;;;0.97;;
3278;SDS011;1651;50.940;6.888;2022-09-20T12:28:10;3.50;;;1.00;;
3278;SDS011;1651;50.940;6.888;2022-09-20T12:30:38;1.07;;;0.97;;
3278;SDS011;1651;50.940;6.888;2022-09-20T12:33:07;1.80;;;0.90;;
3278;SDS011;1651;50.940;6.888;2022-09-20T12:35:59;5.90;;;1.20;;
3278;SDS011;1651;50.940;6.888;2022-09-20T12:38:44;5.07;;;1.10;;
3278;SDS011;1651;50.940;6.888;2022-09-20T12:41:13;1.77;;;0.90;;
3278;SDS011;1651;50.940;6.888;2022-09-20T12:44:20;2.40;;;1.00;;
3278;SDS011;1651;50.940;6.888;2022-09-20T12:46:33;3.50;;;1.20;;
3278;SDS011;1651;50.940;6.888;2022-09-20T12:52:19;3.80;;;1.00;;
3278;SDS011;1651;50.940;6.888;2022-09-20T12:55:04;8.33;;;1.83;;
3278;SDS011;1651;50.940;6.888;2022-09-20T12:57:31;3.73;;;1.20;;
3278;SDS011;1651;50.940;6.888;2022-09-20T13:00:02;1.80;;;1.20;;
3278;SDS011;1651;50.940;6.888;2022-09-20T13:05:39;1.10;;;0.90;;
3278;SDS011;1651;50.940;6.888;2022-09-20T13:08:21;2.10;;;1.10;;
3278;SDS011;1651;50.940;6.888;2022-09-20T13:10:59;2.40;;;0.90;;
3278;SDS011;1651;50.940;6.888;2022-09-20T13:13:38;1.37;;;0.77;;
3278;SDS011;1651;50.940;6.888;2022-09-20T13:16:11;3.17;;;0.93;;
3278;SDS011;1651;50.940;6.888;2022-09-20T13:18:49;2.63;;;1.40;;
3278;SDS011;1651;50.940;6.888;2022-09-20T13:21:18;2.17;;;1.10;;
3278;SDS011;1651;50.940;6.888;2022-09-20T13:23:47;3.93;;;1.10;;
3278;SDS011;1651;50.940;6.888;2022-09-20T13:26:13;3.07;;;1.13;;
3278;SDS011;1651;50.940;6.888;2022-09-20T13:28:48;5.40;;;1.43;;
3278;SDS011;1651;50.940;6.888;2022-09-20T13:36:18;2.80;;;1.13;;
3278;SDS011;1651;50.940;6.888;2022-09-20T13:38:46;4.40;;;2.30;;
3278;SDS011;1651;50.940;6.888;2022-09-20T13:41:13;2.90;;;1.10;;
3278;SDS011;1651;50.940;6.888;2022-09-20T13:43:41;1.40;;;1.03;;
3278;SDS011;1651;50.940;6.888;2022-09-20T13:48:34;1.67;;;0.90;;
3278;SDS011;1651;50.940;6.888;2022-09-20T13:51:00;3.20;;;1.20;;
3278;SDS011;1651;50.940;6.888;2022-09-20T13:53:27;1.17;;;1.00;;
3278;SDS011;1651;50.940;6.888;2022-09-20T13:55:56;3.20;;;1.23;;
3278;SDS011;1651;50.940;6.888;2022-09-20T14:00:53;4.67;;;1.07;;
3278;SDS011;1651;50.940;6.888;2022-09-20T14:03:19;3.23;;;1.10;;
3278;SDS011;1651;50.940;6.888;2022-09-20T14:06:08;3.40;;;1.50;;
3278;SDS011;1651;50.940;6.888;2022-09-20T14:08:48;1.60;;;1.10;;
3278;SDS011;1651;50.940;6.888;2022-09-20T14:11:18;3.83;;;0.90;;
3278;SDS011;1651;50.940;6.888;2022-09-20T14:13:46;3.20;;;1.07;;
3278;SDS011;1651;50.940;6.888;2022-09-20T14:16:13;4.10;;;1.10;;
3278;SDS011;1651;50.940;6.888;2022-09-20T14:18:40;1.53;;;0.90;;
3278;SDS011;1651;50.940;6.888;2022-09-20T14:21:07;2.30;;;0.93;;
3278;SDS011;1651;50.940;6.888;2022-09-20T14:23:47;2.00;;;0.90;;
3278;SDS011;1651;50.940;6.888;2022-09-20T14:28:47;1.40;;;0.90;;
3278;SDS011;1651;50.940;6.888;2022-09-20T14:31:15;5.07;;;0.97;;
3278;SDS011;1651;50.940;6.888;2022-09-20T14:33:46;1.40;;;0.90;;
3278;SDS011;1651;50.940;6.888;2022-09-20T14:36:15;1.10;;;0.80;;
3278;SDS011;1651;50.940;6.888;2022-09-20T14:38:44;4.77;;;1.17;;
3278;SDS011;1651;50.940;6.888;2022-09-20T14:41:11;8.00;;;1.30;;
3278;SDS011;1651;50.940;6.888;2022-09-20T14:43:38;2.00;;;1.00;;
3278;SDS011;1651;50.940;6.888;2022-09-20T14:46:15;2.13;;;0.90;;
3278;SDS011;1651;50.940;6.888;2022-09-20T14:48:41;3.70;;;0.80;;
3278;SDS011;1651;50.940;6.888;2022-09-20T14:53:35;4.00;;;1.30;;
3278;SDS011;1651;50.940;6.888;2022-09-20T14:58:31;4.40;;;0.80;;
3278;SDS011;1651;50.940;6.888;2022-09-20T15:01:00;2.13;;;0.83;;
3278;SDS011;1651;50.940;6.888;2022-09-20T15:06:01;4.70;;;1.23;;
3278;SDS011;1651;50.940;6.888;2022-09-20T15:08:28;5.50;;;1.13;;
3278;SDS011;1651;50.940;6.888;2022-09-20T15:10:54;3.23;;;1.10;;
3278;SDS011;1651;50.940;6.888;2022-09-20T15:13:20;5.67;;;1.63;;
3278;SDS011;1651;50.940;6.888;2022-09-20T15:15:48;2.67;;;1.40;;
3278;SDS011;1651;50.940;6.888;2022-09-20T15:20:50;2.60;;;1.00;;
3278;SDS011;1651;50.940;6.888;2022-09-20T15:23:17;4.37;;;1.10;;
3278;SDS011;1651;50.940;6.888;2022-09-20T15:25:44;2.50;;;1.33;;
3278;SDS011;1651;50.940;6.888;2022-09-20T15:28:14;2.27;;;1.40;;
3278;SDS011;1651;50.940;6.888;2022-09-20T15:30:44;2.30;;;1.00;;
3278;SDS011;1651;50.940;6.888;2022-09-20T15:33:10;2.87;;;1.10;;
3278;SDS011;1651;50.940;6.888;2022-09-20T15:35:37;1.80;;;1.13;;
3278;SDS011;1651;50.940;6.888;2022-09-20T15:38:03;1.43;;;0.90;;
3278;SDS011;1651;50.940;6.888;2022-09-20T15:40:33;2.80;;;1.00;;
3278;SDS011;1651;50.940;6.888;2022-09-20T15:42:59;3.33;;;1.20;;
3278;SDS011;1651;50.940;6.888;2022-09-20T15:45:25;1.43;;;0.90;;
3278;SDS011;1651;50.940;6.888;2022-09-20T15:47:54;4.80;;;1.00;;
3278;SDS011;1651;50.940;6.888;2022-09-20T15:50:22;1.90;;;1.10;;
3278;SDS011;1651;50.940;6.888;2022-09-20T15:52:49;1.80;;;0.80;;
3278;SDS011;1651;50.940;6.888;2022-09-20T15:55:18;1.33;;;0.97;;
3278;SDS011;1651;50.940;6.888;2022-09-20T15:57:46;4.30;;;1.20;;
3278;SDS011;1651;50.940;6.888;2022-09-20T16:00:15;5.27;;;1.60;;
3278;SDS011;1651;50.940;6.888;2022-09-20T16:02:42;3.10;;;0.80;;
3278;SDS011;1651;50.940;6.888;2022-09-20T16:05:09;1.40;;;1.00;;
3278;SDS011;1651;50.940;6.888;2022-09-20T16:07:36;1.97;;;0.80;;
3278;SDS011;1651;50.940;6.888;2022-09-20T16:10:02;1.63;;;1.53;;
3278;SDS011;1651;50.940;6.888;2022-09-20T16:12:28;1.87;;;1.10;;
3278;SDS011;1651;50.940;6.888;2022-09-20T16:14:54;2.10;;;1.10;;
3278;SDS011;1651;50.940;6.888;2022-09-20T16:17:20;1.80;;;1.20;;
3278;SDS011;1651;50.940;6.888;2022-09-20T16:20:06;2.07;;;1.80;;
3278;SDS011;1651;50.940;6.888;2022-09-20T16:22:32;2.53;;;1.10;;
3278;SDS011;1651;50.940;6.888;2022-09-20T16:24:58;3.93;;;1.20;;
3278;SDS011;1651;50.940;6.888;2022-09-20T16:27:25;3.10;;;1.10;;
3278;SDS011;1651;50.940;6.888;2022-09-20T16:29:51;2.17;;;1.30;;
3278;SDS011;1651;50.940;6.888;2022-09-20T16:32:17;3.80;;;1.17;;
3278;SDS011;1651;50.940;6.888;2022-09-20T16:34:44;3.73;;;1.10;;
3278;SDS011;1651;50.940;6.888;2022-09-20T16:37:11;1.90;;;1.13;;
3278;SDS011;1651;50.940;6.888;2022-09-20T16:39:40;2.30;;;0.90;;
3278;SDS011;1651;50.940;6.888;2022-09-20T16:42:07;7.03;;;2.10;;
3278;SDS011;1651;50.940;6.888;2022-09-20T16:44:35;1.70;;;1.10;;
3278;SDS011;1651;50.940;6.888;2022-09-20T16:47:02;3.47;;;1.67;;
3278;SDS011;1651;50.940;6.888;2022-09-20T16:49:31;2.80;;;1.63;;
3278;SDS011;1651;50.940;6.888;2022-09-20T16:51:58;3.57;;;2.00;;
3278;SDS011;1651;50.940;6.888;2022-09-20T16:54:25;2.30;;;1.10;;
3278;SDS011;1651;50.940;6.888;2022-09-20T16:56:51;2.37;;;1.07;;
3278;SDS011;1651;50.940;6.888;2022-09-20T16:59:18;5.30;;;1.47;;
3278;SDS011;1651;50.940;6.888;2022-09-20T17:01:48;1.57;;;0.90;;
3278;SDS011;1651;50.940;6.888;2022-09-20T17:04:14;2.23;;;1.33;;
3278;SDS011;1651;50.940;6.888;2022-09-20T17:06:42;3.93;;;1.20;;
3278;SDS011;1651;50.940;6.888;2022-09-20T17:09:09;2.73;;;0.87;;
3278;SDS011;1651;50.940;6.888;2022-09-20T17:11:36;8.63;;;1.27;;
3278;SDS011;1651;50.940;6.888;2022-09-20T17:14:04;3.20;;;1.03;;
3278;SDS011;1651;50.940;6.888;2022-09-20T17:16:31;4.23;;;1.50;;
3278;SDS011;1651;50.940;6.888;2022-09-20T17:18:59;3.47;;;1.23;;
3278;SDS011;1651;50.940;6.888;2022-09-20T17:21:26;1.77;;;1.00;;
3278;SDS011;1651;50.940;6.888;2022-09-20T17:23:53;3.90;;;1.10;;
3278;SDS011;1651;50.940;6.888;2022-09-20T17:26:22;2.50;;;1.30;;
3278;SDS011;1651;50.940;6.888;2022-09-20T17:28:49;2.50;;;1.03;;
3278;SDS011;1651;50.940;6.888;2022-09-20T17:31:18;3.27;;;1.30;;
3278;SDS011;1651;50.940;6.888;2022-09-20T17:33:45;6.53;;;1.30;;
3278;SDS011;1651;50.940;6.888;2022-09-20T17:36:11;1.63;;;1.30;;
3278;SDS011;1651;50.940;6.888;2022-09-20T17:38:39;3.07;;;1.40;;
3278;SDS011;1651;50.940;6.888;2022-09-20T17:41:06;1.70;;;1.00;;
3278;SDS011;1651;50.940;6.888;2022-09-20T17:43:33;1.80;;;1.20;;
3278;SDS011;1651;50.940;6.888;2022-09-20T17:46:09;2.87;;;1.00;;
3278;SDS011;1651;50.940;6.888;2022-09-20T17:48:36;1.30;;;1.20;;
3278;SDS011;1651;50.940;6.888;2022-09-20T17:51:02;1.93;;;1.00;;
3278;SDS011;1651;50.940;6.888;2022-09-20T17:53:32;2.37;;;1.30;;
3278;SDS011;1651;50.940;6.888;2022-09-20T17:55:58;2.10;;;1.53;;
3278;SDS011;1651;50.940;6.888;2022-09-20T17:58:25;4.40;;;1.50;;
3278;SDS011;1651;50.940;6.888;2022-09-20T18:00:51;3.00;;;1.50;;
3278;SDS011;1651;50.940;6.888;2022-09-20T18:03:22;2.60;;;1.40;;
3278;SDS011;1651;50.940;6.888;2022-09-20T18:05:49;2.50;;;1.60;;
3278;SDS011;1651;50.940;6.888;2022-09-20T18:08:16;5.83;;;2.23;;
3278;SDS011;1651;50.940;6.888;2022-09-20T18:10:52;3.57;;;1.30;;
3278;SDS011;1651;50.940;6.888;2022-09-20T18:13:19;1.90;;;1.60;;
3278;SDS011;1651;50.940;6.888;2022-09-20T18:15:46;2.33;;;1.50;;
3278;SDS011;1651;50.940;6.888;2022-09-20T18:18:12;2.30;;;2.03;;
3278;SDS011;1651;50.940;6.888;2022-09-20T18:20:38;2.70;;;1.63;;
3278;SDS011;1651;50.940;6.888;2022-09-20T18:23:04;2.70;;;1.77;;
3278;SDS011;1651;50.940;6.888;2022-09-20T18:25:44;3.70;;;1.83;;
3278;SDS011;1651;50.940;6.888;2022-09-20T18:28:28;4.37;;;1.80;;
3278;SDS011;1651;50.940;6.888;2022-09-20T18:30:59;4.80;;;2.10;;
3278;SDS011;1651;50.940;6.888;2022-09-20T18:38:33;2.43;;;1.40;;
3278;SDS011;1651;50.940;6.888;2022-09-20T18:41:04;4.77;;;1.60;;
3278;SDS011;1651;50.940;6.888;2022-09-20T18:43:36;2.30;;;1.23;;
3278;SDS011;1651;50.940;6.888;2022-09-20T18:46:02;3.47;;;1.77;;
3278;SDS011;1651;50.940;6.888;2022-09-20T18:48:30;6.53;;;1.50;;
3278;SDS011;1651;50.940;6.888;2022-09-20T18:50:58;2.30;;;1.20;;
3278;SDS011;1651;50.940;6.888;2022-09-20T18:53:25;2.50;;;1.50;;
3278;SDS011;1651;50.940;6.888;2022-09-20T18:55:51;4.07;;;1.73;;
3278;SDS011;1651;50.940;6.888;2022-09-20T18:58:21;2.13;;;1.40;;
3278;SDS011;1651;50.940;6.888;2022-09-20T19:03:44;4.30;;;1.60;;
3278;SDS011;1651;50.940;6.888;2022-09-20T19:06:14;6.30;;;1.90;;
3278;SDS011;1651;50.940;6.888;2022-09-20T19:08:56;4.40;;;1.90;;
3278;SDS011;1651;50.940;6.888;2022-09-20T19:11:36;2.93;;;1.80;;
3278;SDS011;1651;50.940;6.888;2022-09-20T19:14:17;2.87;;;2.20;;
3278;SDS011;1651;50.940;6.888;2022-09-20T19:16:48;2.33;;;1.90;;
3278;SDS011;1651;50.940;6.888;2022-09-20T19:27:27;3.90;;;1.83;;
3278;SDS011;1651;50.940;6.888;2022-09-20T19:29:53;4.40;;;1.83;;
3278;SDS011;1651;50.940;6.888;2022-09-20T19:32:20;3.80;;;1.83;;
3278;SDS011;1651;50.940;6.888;2022-09-20T19:34:50;2.73;;;1.67;;
3278;SDS011;1651;50.940;6.888;2022-09-20T19:37:29;4.40;;;1.67;;
3278;SDS011;1651;50.940;6.888;2022-09-20T19:50:28;3.40;;;2.00;;
3278;SDS011;1651;50.940;6.888;2022-09-20T19:52:58;2.90;;;1.80;;
3278;SDS011;1651;50.940;6.888;2022-09-20T19:55:31;3.53;;;1.97;;
3278;SDS011;1651;50.940;6.888;2022-09-20T19:57:57;3.03;;;1.63;;
3278;SDS011;1651;50.940;6.888;2022-09-20T20:00:23;4.00;;;1.40;;
3278;SDS011;1651;50.940;6.888;2022-09-20T20:02:52;3.33;;;1.90;;
3278;SDS011;1651;50.940;6.888;2022-09-20T20:05:19;2.90;;;1.60;;
3278;SDS011;1651;50.940;6.888;2022-09-20T20:16:22;5.57;;;2.17;;
3278;SDS011;1651;50.940;6.888;2022-09-20T20:30:24;4.13;;;1.80;;
3278;SDS011;1651;50.940;6.888;2022-09-20T20:40:56;3.70;;;1.93;;
3278;SDS011;1651;50.940;6.888;2022-09-20T20:55:19;4.40;;;2.27;;
3278;SDS011;1651;50.940;6.888;2022-09-20T21:04:15;5.00;;;2.40;;
3278;SDS011;1651;50.940;6.888;2022-09-20T21:09:19;5.40;;;3.10;;
3278;SDS011;1651;50.940;6.888;2022-09-20T21:12:02;3.40;;;2.00;;
3278;SDS011;1651;50.940;6.888;2022-09-20T21:14:29;5.90;;;3.08;;
3278;SDS011;1651;50.940;6.888;2022-09-20T21:50:36;4.22;;;2.80;;
3278;SDS011;1651;50.940;6.888;2022-09-20T22:09:37;3.83;;;2.42;;
3278;SDS011;1651;50.940;6.888;2022-09-20T22:12:10;5.55;;;2.80;;
3278;SDS011;1651;50.940;6.888;2022-09-20T22:19:55;4.55;;;2.67;;
3278;SDS011;1651;50.940;6.888;2022-09-20T22:22:27;3.65;;;2.88;;
3278;SDS011;1651;50.940;6.888;2022-09-20T22:25:15;5.57;;;3.37;;
3278;SDS011;1651;50.940;6.888;2022-09-20T22:27:50;4.75;;;3.20;;
3278;SDS011;1651;50.940;6.888;2022-09-20T22:30:24;5.28;;;2.90;;
3278;SDS011;1651;50.940;6.888;2022-09-20T22:32:50;7.75;;;2.90;;
3278;SDS011;1651;50.940;6.888;2022-09-20T22:35:16;4.28;;;3.20;;
3278;SDS011;1651;50.940;6.888;2022-09-20T22:37:47;10.07;;;4.10;;
3278;SDS011;1651;50.940;6.888;2022-09-20T22:40:16;4.32;;;2.80;;
3278;SDS011;1651;50.940;6.888;2022-09-20T22:42:43;5.50;;;2.65;;
3278;SDS011;1651;50.940;6.888;2022-09-20T22:45:09;8.93;;;2.75;;
3278;SDS011;1651;50.940;6.888;2022-09-20T22:47:35;8.95;;;3.42;;
3278;SDS011;1651;50.940;6.888;2022-09-20T22:50:02;5.63;;;3.05;;
3278;SDS011;1651;50.940;6.888;2022-09-20T22:52:28;7.50;;;3.00;;
3278;SDS011;1651;50.940;6.888;2022-09-20T22:54:54;8.00;;;3.27;;
3278;SDS011;1651;50.940;6.888;2022-09-20T22:57:20;5.00;;;2.70;;
3278;SDS011;1651;50.940;6.888;2022-09-20T22:59:45;4.57;;;3.00;;